sensor_id;sensor_type;location;lat;lon;timestamp;temperature;humidity
5164;DHT22;2601;50.224;10.126;2023-11-22T00:00:40;16.70;78.10
5164;DHT22;2601;50.224;10.126;2023-11-22T00:03:06;16.70;78.10
5164;DHT22;2601;50.224;10.126;2023-11-22T00:05:31;16.70;78.20
5164;DHT22;2601;50.224;10.126;2023-11-22T00:07:57;16.70;78.10
5164;DHT22;2601;50.224;10.126;2023-11-22T00:10:22;16.70;78.00
5164;DHT22;2601;50.224;10.126;2023-11-22T00:12:49;16.70;77.90
5164;DHT22;2601;50.224;10.126;2023-11-22T00:15:14;16.70;77.90
5164;DHT22;2601;50.224;10.126;2023-11-22T00:17:44;16.70;77.80
5164;DHT22;2601;50.224;10.126;2023-11-22T00:20:10;16.70;77.80
5164;DHT22;2601;50.224;10.126;2023-11-22T00:22:35;16.70;77.70
5164;DHT22;2601;50.224;10.126;2023-11-22T00:25:01;16.70;77.60
5164;DHT22;2601;50.224;10.126;2023-11-22T00:27:28;16.70;77.70
5164;DHT22;2601;50.224;10.126;2023-11-22T00:29:55;16.70;77.60
5164;DHT22;2601;50.224;10.126;2023-11-22T00:32:21;16.70;77.60
5164;DHT22;2601;50.224;10.126;2023-11-22T00:34:46;16.70;77.70
5164;DHT22;2601;50.224;10.126;2023-11-22T00:37:13;16.70;77.60
5164;DHT22;2601;50.224;10.126;2023-11-22T00:39:38;16.70;77.70
5164;DHT22;2601;50.224;10.126;2023-11-22T00:42:04;16.60;77.50
5164;DHT22;2601;50.224;10.126;2023-11-22T00:44:30;16.70;77.60
5164;DHT22;2601;50.224;10.126;2023-11-22T00:46:56;16.70;77.60
5164;DHT22;2601;50.224;10.126;2023-11-22T00:49:23;16.70;77.50
5164;DHT22;2601;50.224;10.126;2023-11-22T00:51:49;16.70;77.50
5164;DHT22;2601;50.224;10.126;2023-11-22T00:54:16;16.70;77.40
5164;DHT22;2601;50.224;10.126;2023-11-22T00:56:41;16.60;77.20
5164;DHT22;2601;50.224;10.126;2023-11-22T00:59:07;16.60;77.10
5164;DHT22;2601;50.224;10.126;2023-11-22T01:01:35;16.60;77.10
5164;DHT22;2601;50.224;10.126;2023-11-22T01:04:00;16.60;77.10
5164;DHT22;2601;50.224;10.126;2023-11-22T01:06:26;16.60;77.10
5164;DHT22;2601;50.224;10.126;2023-11-22T01:08:51;16.50;76.90
5164;DHT22;2601;50.224;10.126;2023-11-22T01:11:17;16.60;77.10
5164;DHT22;2601;50.224;10.126;2023-11-22T01:13:42;16.60;76.80
5164;DHT22;2601;50.224;10.126;2023-11-22T01:16:11;16.60;76.80
5164;DHT22;2601;50.224;10.126;2023-11-22T01:18:38;16.70;76.90
5164;DHT22;2601;50.224;10.126;2023-11-22T01:21:05;16.60;76.70
5164;DHT22;2601;50.224;10.126;2023-11-22T01:23:31;16.60;76.70
5164;DHT22;2601;50.224;10.126;2023-11-22T01:25:59;16.60;76.70
5164;DHT22;2601;50.224;10.126;2023-11-22T01:28:28;16.50;76.50
5164;DHT22;2601;50.224;10.126;2023-11-22T01:30:54;16.60;76.60
5164;DHT22;2601;50.224;10.126;2023-11-22T01:33:21;16.60;76.30
5164;DHT22;2601;50.224;10.126;2023-11-22T01:35:47;16.60;76.40
5164;DHT22;2601;50.224;10.126;2023-11-22T01:38:13;16.60;76.30
5164;DHT22;2601;50.224;10.126;2023-11-22T01:40:46;16.60;76.30
5164;DHT22;2601;50.224;10.126;2023-11-22T01:43:18;16.60;76.30
5164;DHT22;2601;50.224;10.126;2023-11-22T01:45:44;16.60;76.20
5164;DHT22;2601;50.224;10.126;2023-11-22T01:48:11;16.60;76.30
5164;DHT22;2601;50.224;10.126;2023-11-22T01:50:40;16.60;76.10
5164;DHT22;2601;50.224;10.126;2023-11-22T01:53:09;16.60;76.10
5164;DHT22;2601;50.224;10.126;2023-11-22T01:55:35;16.60;76.10
5164;DHT22;2601;50.224;10.126;2023-11-22T01:58:01;16.60;76.10
5164;DHT22;2601;50.224;10.126;2023-11-22T02:00:32;16.60;76.10
5164;DHT22;2601;50.224;10.126;2023-11-22T02:03:00;16.50;75.80
5164;DHT22;2601;50.224;10.126;2023-11-22T02:05:26;16.50;75.70
5164;DHT22;2601;50.224;10.126;2023-11-22T02:07:51;16.50;75.70
5164;DHT22;2601;50.224;10.126;2023-11-22T02:10:17;16.50;75.70
5164;DHT22;2601;50.224;10.126;2023-11-22T02:12:43;16.50;75.60
5164;DHT22;2601;50.224;10.126;2023-11-22T02:15:09;16.50;75.60
5164;DHT22;2601;50.224;10.126;2023-11-22T02:17:35;16.50;75.60
5164;DHT22;2601;50.224;10.126;2023-11-22T02:20:01;16.50;75.50
5164;DHT22;2601;50.224;10.126;2023-11-22T02:22:27;16.50;75.50
5164;DHT22;2601;50.224;10.126;2023-11-22T02:24:52;16.50;75.40
5164;DHT22;2601;50.224;10.126;2023-11-22T02:27:18;16.50;75.40
5164;DHT22;2601;50.224;10.126;2023-11-22T02:29:44;16.50;75.40
5164;DHT22;2601;50.224;10.126;2023-11-22T02:32:10;16.50;75.40
5164;DHT22;2601;50.224;10.126;2023-11-22T02:34:36;16.50;75.20
5164;DHT22;2601;50.224;10.126;2023-11-22T02:37:02;16.50;75.20
5164;DHT22;2601;50.224;10.126;2023-11-22T02:39:47;16.50;75.20
5164;DHT22;2601;50.224;10.126;2023-11-22T02:42:14;16.50;75.10
5164;DHT22;2601;50.224;10.126;2023-11-22T02:44:39;16.50;75.20
5164;DHT22;2601;50.224;10.126;2023-11-22T02:47:05;16.50;75.80
5164;DHT22;2601;50.224;10.126;2023-11-22T02:49:31;16.50;75.10
5164;DHT22;2601;50.224;10.126;2023-11-22T02:51:56;16.50;75.10
5164;DHT22;2601;50.224;10.126;2023-11-22T02:54:22;16.50;75.00
5164;DHT22;2601;50.224;10.126;2023-11-22T02:56:47;16.50;74.90
5164;DHT22;2601;50.224;10.126;2023-11-22T02:59:13;16.50;75.00
5164;DHT22;2601;50.224;10.126;2023-11-22T03:01:39;16.40;74.80
5164;DHT22;2601;50.224;10.126;2023-11-22T03:04:10;16.50;74.80
5164;DHT22;2601;50.224;10.126;2023-11-22T03:06:35;16.50;74.70
5164;DHT22;2601;50.224;10.126;2023-11-22T03:09:01;16.50;74.70
5164;DHT22;2601;50.224;10.126;2023-11-22T03:11:27;16.50;75.30
5164;DHT22;2601;50.224;10.126;2023-11-22T03:13:53;16.50;74.60
5164;DHT22;2601;50.224;10.126;2023-11-22T03:16:18;16.50;74.70
5164;DHT22;2601;50.224;10.126;2023-11-22T03:18:44;16.50;74.60
5164;DHT22;2601;50.224;10.126;2023-11-22T03:21:10;16.50;74.60
5164;DHT22;2601;50.224;10.126;2023-11-22T03:23:35;16.50;74.50
5164;DHT22;2601;50.224;10.126;2023-11-22T03:26:01;16.50;74.50
5164;DHT22;2601;50.224;10.126;2023-11-22T03:28:27;16.50;74.50
5164;DHT22;2601;50.224;10.126;2023-11-22T03:30:55;16.50;74.50
5164;DHT22;2601;50.224;10.126;2023-11-22T03:33:21;16.50;74.40
5164;DHT22;2601;50.224;10.126;2023-11-22T03:35:46;16.50;74.40
5164;DHT22;2601;50.224;10.126;2023-11-22T03:38:12;16.50;74.30
5164;DHT22;2601;50.224;10.126;2023-11-22T03:40:37;16.50;74.20
5164;DHT22;2601;50.224;10.126;2023-11-22T03:43:03;16.50;74.20
5164;DHT22;2601;50.224;10.126;2023-11-22T03:45:29;16.50;74.30
5164;DHT22;2601;50.224;10.126;2023-11-22T03:47:54;16.50;74.20
5164;DHT22;2601;50.224;10.126;2023-11-22T03:50:20;16.50;74.00
5164;DHT22;2601;50.224;10.126;2023-11-22T03:52:45;16.50;74.10
5164;DHT22;2601;50.224;10.126;2023-11-22T03:55:12;16.50;73.90
5164;DHT22;2601;50.224;10.126;2023-11-22T03:57:37;16.40;73.80
5164;DHT22;2601;50.224;10.126;2023-11-22T04:00:03;16.50;73.70
5164;DHT22;2601;50.224;10.126;2023-11-22T04:02:31;16.50;73.70
5164;DHT22;2601;50.224;10.126;2023-11-22T04:04:57;16.50;73.70
5164;DHT22;2601;50.224;10.126;2023-11-22T04:07:22;16.50;73.60
5164;DHT22;2601;50.224;10.126;2023-11-22T04:09:48;16.50;73.50
5164;DHT22;2601;50.224;10.126;2023-11-22T04:12:14;16.50;73.50
5164;DHT22;2601;50.224;10.126;2023-11-22T04:14:39;16.50;73.60
5164;DHT22;2601;50.224;10.126;2023-11-22T04:17:05;16.50;73.60
5164;DHT22;2601;50.224;10.126;2023-11-22T04:19:31;16.40;73.40
5164;DHT22;2601;50.224;10.126;2023-11-22T04:21:57;16.40;73.30
5164;DHT22;2601;50.224;10.126;2023-11-22T04:24:22;16.40;73.30
5164;DHT22;2601;50.224;10.126;2023-11-22T04:26:48;16.40;73.20
5164;DHT22;2601;50.224;10.126;2023-11-22T04:29:13;16.40;73.10
5164;DHT22;2601;50.224;10.126;2023-11-22T04:31:39;16.50;73.20
5164;DHT22;2601;50.224;10.126;2023-11-22T04:34:05;16.40;73.00
5164;DHT22;2601;50.224;10.126;2023-11-22T04:36:31;16.40;73.00
5164;DHT22;2601;50.224;10.126;2023-11-22T04:38:56;16.40;72.90
5164;DHT22;2601;50.224;10.126;2023-11-22T04:41:22;16.40;72.90
5164;DHT22;2601;50.224;10.126;2023-11-22T04:43:48;16.40;72.80
5164;DHT22;2601;50.224;10.126;2023-11-22T04:46:13;16.40;72.70
5164;DHT22;2601;50.224;10.126;2023-11-22T04:48:39;16.40;72.70
5164;DHT22;2601;50.224;10.126;2023-11-22T04:51:06;17.30;73.70
5164;DHT22;2601;50.224;10.126;2023-11-22T04:53:31;16.40;72.70
5164;DHT22;2601;50.224;10.126;2023-11-22T04:55:57;16.40;72.70
5164;DHT22;2601;50.224;10.126;2023-11-22T04:58:24;16.40;72.50
5164;DHT22;2601;50.224;10.126;2023-11-22T05:00:50;16.40;72.70
5164;DHT22;2601;50.224;10.126;2023-11-22T05:03:15;16.40;72.60
5164;DHT22;2601;50.224;10.126;2023-11-22T05:05:41;16.40;72.60
5164;DHT22;2601;50.224;10.126;2023-11-22T05:08:07;16.40;72.50
5164;DHT22;2601;50.224;10.126;2023-11-22T05:10:32;16.40;72.60
5164;DHT22;2601;50.224;10.126;2023-11-22T05:12:58;16.40;72.50
5164;DHT22;2601;50.224;10.126;2023-11-22T05:15:26;16.50;72.50
5164;DHT22;2601;50.224;10.126;2023-11-22T05:17:52;16.40;72.40
5164;DHT22;2601;50.224;10.126;2023-11-22T05:20:18;16.40;72.40
5164;DHT22;2601;50.224;10.126;2023-11-22T05:22:43;16.40;72.30
5164;DHT22;2601;50.224;10.126;2023-11-22T05:25:09;16.40;72.40
5164;DHT22;2601;50.224;10.126;2023-11-22T05:27:34;16.40;72.10
5164;DHT22;2601;50.224;10.126;2023-11-22T05:30:00;16.40;72.20
5164;DHT22;2601;50.224;10.126;2023-11-22T05:32:27;16.40;72.00
5164;DHT22;2601;50.224;10.126;2023-11-22T05:34:53;16.40;72.20
5164;DHT22;2601;50.224;10.126;2023-11-22T05:37:18;16.40;72.20
5164;DHT22;2601;50.224;10.126;2023-11-22T05:39:44;16.40;72.10
5164;DHT22;2601;50.224;10.126;2023-11-22T05:42:11;16.40;72.00
5164;DHT22;2601;50.224;10.126;2023-11-22T05:44:37;16.40;72.10
5164;DHT22;2601;50.224;10.126;2023-11-22T05:47:02;16.40;71.90
5164;DHT22;2601;50.224;10.126;2023-11-22T05:49:28;16.40;72.10
5164;DHT22;2601;50.224;10.126;2023-11-22T05:51:54;16.40;72.00
5164;DHT22;2601;50.224;10.126;2023-11-22T05:54:19;16.40;71.90
5164;DHT22;2601;50.224;10.126;2023-11-22T05:56:45;16.40;71.90
5164;DHT22;2601;50.224;10.126;2023-11-22T05:59:10;16.40;71.90
5164;DHT22;2601;50.224;10.126;2023-11-22T06:01:36;16.40;71.90
5164;DHT22;2601;50.224;10.126;2023-11-22T06:04:02;16.40;71.90
5164;DHT22;2601;50.224;10.126;2023-11-22T06:06:28;16.40;71.70
5164;DHT22;2601;50.224;10.126;2023-11-22T06:08:54;16.40;71.70
5164;DHT22;2601;50.224;10.126;2023-11-22T06:11:20;16.40;71.60
5164;DHT22;2601;50.224;10.126;2023-11-22T06:13:46;16.40;71.60
5164;DHT22;2601;50.224;10.126;2023-11-22T06:16:12;16.40;71.30
5164;DHT22;2601;50.224;10.126;2023-11-22T06:18:38;16.40;71.60
5164;DHT22;2601;50.224;10.126;2023-11-22T06:21:09;16.40;71.50
5164;DHT22;2601;50.224;10.126;2023-11-22T06:23:34;16.40;71.50
5164;DHT22;2601;50.224;10.126;2023-11-22T06:26:00;16.40;71.30
5164;DHT22;2601;50.224;10.126;2023-11-22T06:28:26;16.40;71.30
5164;DHT22;2601;50.224;10.126;2023-11-22T06:30:52;16.50;71.50
5164;DHT22;2601;50.224;10.126;2023-11-22T06:33:18;16.40;71.30
5164;DHT22;2601;50.224;10.126;2023-11-22T06:35:44;16.40;71.10
5164;DHT22;2601;50.224;10.126;2023-11-22T06:38:09;16.40;71.30
5164;DHT22;2601;50.224;10.126;2023-11-22T06:40:35;16.40;71.40
5164;DHT22;2601;50.224;10.126;2023-11-22T06:43:01;16.40;71.20
5164;DHT22;2601;50.224;10.126;2023-11-22T06:45:26;16.40;71.30
5164;DHT22;2601;50.224;10.126;2023-11-22T06:47:52;16.40;71.10
5164;DHT22;2601;50.224;10.126;2023-11-22T06:50:18;16.40;71.20
5164;DHT22;2601;50.224;10.126;2023-11-22T06:52:44;16.50;71.20
5164;DHT22;2601;50.224;10.126;2023-11-22T06:55:10;16.50;71.20
5164;DHT22;2601;50.224;10.126;2023-11-22T06:57:37;16.50;71.10
5164;DHT22;2601;50.224;10.126;2023-11-22T07:00:04;16.40;71.00
5164;DHT22;2601;50.224;10.126;2023-11-22T07:02:31;16.50;71.00
5164;DHT22;2601;50.224;10.126;2023-11-22T07:04:57;16.50;71.10
5164;DHT22;2601;50.224;10.126;2023-11-22T07:07:24;16.40;70.80
5164;DHT22;2601;50.224;10.126;2023-11-22T07:09:50;16.40;70.90
5164;DHT22;2601;50.224;10.126;2023-11-22T07:12:16;16.50;70.90
5164;DHT22;2601;50.224;10.126;2023-11-22T07:14:42;16.50;70.90
5164;DHT22;2601;50.224;10.126;2023-11-22T07:17:08;16.50;70.90
5164;DHT22;2601;50.224;10.126;2023-11-22T07:19:34;16.50;71.00
5164;DHT22;2601;50.224;10.126;2023-11-22T07:22:04;16.50;71.00
5164;DHT22;2601;50.224;10.126;2023-11-22T07:24:30;16.60;70.60
5164;DHT22;2601;50.224;10.126;2023-11-22T07:26:59;16.60;70.00
5164;DHT22;2601;50.224;10.126;2023-11-22T07:29:26;16.60;70.10
5164;DHT22;2601;50.224;10.126;2023-11-22T07:31:52;16.60;70.20
5164;DHT22;2601;50.224;10.126;2023-11-22T07:34:17;16.60;70.20
5164;DHT22;2601;50.224;10.126;2023-11-22T07:36:44;16.60;70.10
5164;DHT22;2601;50.224;10.126;2023-11-22T07:39:09;16.60;70.10
5164;DHT22;2601;50.224;10.126;2023-11-22T07:41:37;16.60;70.00
5164;DHT22;2601;50.224;10.126;2023-11-22T07:44:03;16.70;70.90
5164;DHT22;2601;50.224;10.126;2023-11-22T07:46:29;16.70;70.00
5164;DHT22;2601;50.224;10.126;2023-11-22T07:48:54;16.70;70.10
5164;DHT22;2601;50.224;10.126;2023-11-22T07:51:20;16.70;70.10
5164;DHT22;2601;50.224;10.126;2023-11-22T07:53:45;16.70;70.50
5164;DHT22;2601;50.224;10.126;2023-11-22T07:56:11;16.80;70.70
5164;DHT22;2601;50.224;10.126;2023-11-22T07:58:37;16.80;70.30
5164;DHT22;2601;50.224;10.126;2023-11-22T08:01:03;16.80;70.00
5164;DHT22;2601;50.224;10.126;2023-11-22T08:03:35;16.80;69.90
5164;DHT22;2601;50.224;10.126;2023-11-22T08:06:00;16.80;69.70
5164;DHT22;2601;50.224;10.126;2023-11-22T08:08:28;16.80;69.70
5164;DHT22;2601;50.224;10.126;2023-11-22T08:10:54;16.80;69.60
5164;DHT22;2601;50.224;10.126;2023-11-22T08:13:22;16.80;69.40
5164;DHT22;2601;50.224;10.126;2023-11-22T08:15:48;16.80;69.40
5164;DHT22;2601;50.224;10.126;2023-11-22T08:18:14;16.90;69.60
5164;DHT22;2601;50.224;10.126;2023-11-22T08:20:50;16.90;69.50
5164;DHT22;2601;50.224;10.126;2023-11-22T08:23:35;16.90;70.00
5164;DHT22;2601;50.224;10.126;2023-11-22T08:26:00;16.90;70.60
5164;DHT22;2601;50.224;10.126;2023-11-22T08:28:26;16.90;70.60
5164;DHT22;2601;50.224;10.126;2023-11-22T08:30:52;16.90;69.90
5164;DHT22;2601;50.224;10.126;2023-11-22T08:33:18;17.00;70.00
5164;DHT22;2601;50.224;10.126;2023-11-22T08:35:44;17.00;70.20
5164;DHT22;2601;50.224;10.126;2023-11-22T08:38:16;17.00;69.70
5164;DHT22;2601;50.224;10.126;2023-11-22T08:40:42;17.00;69.60
5164;DHT22;2601;50.224;10.126;2023-11-22T08:43:08;17.10;70.80
5164;DHT22;2601;50.224;10.126;2023-11-22T08:45:33;17.10;71.80
5164;DHT22;2601;50.224;10.126;2023-11-22T08:48:00;17.20;72.40
5164;DHT22;2601;50.224;10.126;2023-11-22T08:50:26;17.20;70.40
5164;DHT22;2601;50.224;10.126;2023-11-22T08:52:51;17.20;69.60
5164;DHT22;2601;50.224;10.126;2023-11-22T08:55:20;17.20;69.30
5164;DHT22;2601;50.224;10.126;2023-11-22T08:57:50;17.20;69.00
5164;DHT22;2601;50.224;10.126;2023-11-22T09:00:17;17.40;68.90
5164;DHT22;2601;50.224;10.126;2023-11-22T09:02:48;17.40;69.70
5164;DHT22;2601;50.224;10.126;2023-11-22T09:05:14;17.40;70.00
5164;DHT22;2601;50.224;10.126;2023-11-22T09:07:43;17.40;67.70
5164;DHT22;2601;50.224;10.126;2023-11-22T09:10:10;17.40;68.00
5164;DHT22;2601;50.224;10.126;2023-11-22T09:12:39;17.40;68.00
5164;DHT22;2601;50.224;10.126;2023-11-22T09:15:09;17.40;68.10
5164;DHT22;2601;50.224;10.126;2023-11-22T09:17:39;17.40;69.20
5164;DHT22;2601;50.224;10.126;2023-11-22T09:20:12;17.30;70.00
5164;DHT22;2601;50.224;10.126;2023-11-22T09:22:44;17.40;69.70
5164;DHT22;2601;50.224;10.126;2023-11-22T09:25:17;17.50;68.40
5164;DHT22;2601;50.224;10.126;2023-11-22T09:27:45;17.50;65.80
5164;DHT22;2601;50.224;10.126;2023-11-22T09:30:16;17.40;64.80
5164;DHT22;2601;50.224;10.126;2023-11-22T09:32:48;17.40;66.30
5164;DHT22;2601;50.224;10.126;2023-11-22T09:35:14;17.40;67.70
5164;DHT22;2601;50.224;10.126;2023-11-22T09:37:41;17.40;69.10
5164;DHT22;2601;50.224;10.126;2023-11-22T09:40:10;17.40;70.00
5164;DHT22;2601;50.224;10.126;2023-11-22T09:42:37;17.50;70.90
5164;DHT22;2601;50.224;10.126;2023-11-22T09:45:03;17.50;70.70
5164;DHT22;2601;50.224;10.126;2023-11-22T09:47:32;17.50;71.50
5164;DHT22;2601;50.224;10.126;2023-11-22T09:50:01;17.50;71.00
5164;DHT22;2601;50.224;10.126;2023-11-22T09:52:33;17.50;73.70
5164;DHT22;2601;50.224;10.126;2023-11-22T09:55:01;17.50;73.10
5164;DHT22;2601;50.224;10.126;2023-11-22T09:57:29;17.50;73.20
5164;DHT22;2601;50.224;10.126;2023-11-22T09:59:56;17.50;73.60
5164;DHT22;2601;50.224;10.126;2023-11-22T10:02:23;17.50;73.80
5164;DHT22;2601;50.224;10.126;2023-11-22T10:04:53;17.40;73.80
5164;DHT22;2601;50.224;10.126;2023-11-22T10:07:19;17.40;74.10
5164;DHT22;2601;50.224;10.126;2023-11-22T10:09:44;17.40;74.40
5164;DHT22;2601;50.224;10.126;2023-11-22T10:12:12;17.40;74.70
5164;DHT22;2601;50.224;10.126;2023-11-22T10:14:38;17.40;74.70
5164;DHT22;2601;50.224;10.126;2023-11-22T10:17:04;17.40;74.90
5164;DHT22;2601;50.224;10.126;2023-11-22T10:19:31;17.40;75.00
5164;DHT22;2601;50.224;10.126;2023-11-22T10:22:02;17.40;75.10
5164;DHT22;2601;50.224;10.126;2023-11-22T10:24:31;17.40;75.20
5164;DHT22;2601;50.224;10.126;2023-11-22T10:26:59;17.40;75.40
5164;DHT22;2601;50.224;10.126;2023-11-22T10:29:28;17.40;75.20
5164;DHT22;2601;50.224;10.126;2023-11-22T10:31:54;17.40;74.70
5164;DHT22;2601;50.224;10.126;2023-11-22T10:34:21;17.40;75.30
5164;DHT22;2601;50.224;10.126;2023-11-22T10:36:47;17.30;75.30
5164;DHT22;2601;50.224;10.126;2023-11-22T10:39:13;17.40;75.20
5164;DHT22;2601;50.224;10.126;2023-11-22T10:41:42;17.40;75.10
5164;DHT22;2601;50.224;10.126;2023-11-22T10:44:09;17.30;75.00
5164;DHT22;2601;50.224;10.126;2023-11-22T10:46:35;17.40;75.10
5164;DHT22;2601;50.224;10.126;2023-11-22T10:49:02;17.30;74.90
5164;DHT22;2601;50.224;10.126;2023-11-22T10:51:30;17.30;74.80
5164;DHT22;2601;50.224;10.126;2023-11-22T10:53:58;17.30;74.70
5164;DHT22;2601;50.224;10.126;2023-11-22T10:56:26;17.30;74.80
5164;DHT22;2601;50.224;10.126;2023-11-22T10:58:57;17.30;74.70
5164;DHT22;2601;50.224;10.126;2023-11-22T11:01:26;17.30;74.80
5164;DHT22;2601;50.224;10.126;2023-11-22T11:04:02;17.30;74.80
5164;DHT22;2601;50.224;10.126;2023-11-22T11:06:33;17.30;74.90
5164;DHT22;2601;50.224;10.126;2023-11-22T11:09:00;17.30;74.70
5164;DHT22;2601;50.224;10.126;2023-11-22T11:11:28;17.30;75.20
5164;DHT22;2601;50.224;10.126;2023-11-22T11:13:54;17.30;75.20
5164;DHT22;2601;50.224;10.126;2023-11-22T11:16:22;17.30;75.90
5164;DHT22;2601;50.224;10.126;2023-11-22T11:18:49;17.30;75.60
5164;DHT22;2601;50.224;10.126;2023-11-22T11:21:15;17.30;73.90
5164;DHT22;2601;50.224;10.126;2023-11-22T11:23:41;17.30;72.90
5164;DHT22;2601;50.224;10.126;2023-11-22T11:26:15;17.20;73.80
5164;DHT22;2601;50.224;10.126;2023-11-22T11:28:47;17.20;74.40
5164;DHT22;2601;50.224;10.126;2023-11-22T11:31:13;17.20;74.70
5164;DHT22;2601;50.224;10.126;2023-11-22T11:36:24;17.20;74.90
5164;DHT22;2601;50.224;10.126;2023-11-22T11:38:52;17.20;74.70
5164;DHT22;2601;50.224;10.126;2023-11-22T11:41:18;17.20;74.60
5164;DHT22;2601;50.224;10.126;2023-11-22T11:43:45;17.10;74.70
5164;DHT22;2601;50.224;10.126;2023-11-22T11:46:14;17.10;75.40
5164;DHT22;2601;50.224;10.126;2023-11-22T11:48:58;17.10;75.00
5164;DHT22;2601;50.224;10.126;2023-11-22T11:51:28;17.20;75.00
5164;DHT22;2601;50.224;10.126;2023-11-22T11:53:55;17.20;75.30
5164;DHT22;2601;50.224;10.126;2023-11-22T11:56:21;17.10;75.10
5164;DHT22;2601;50.224;10.126;2023-11-22T11:58:48;17.20;75.00
5164;DHT22;2601;50.224;10.126;2023-11-22T12:01:15;17.20;75.00
5164;DHT22;2601;50.224;10.126;2023-11-22T12:03:45;17.10;74.90
5164;DHT22;2601;50.224;10.126;2023-11-22T12:06:14;17.20;75.10
5164;DHT22;2601;50.224;10.126;2023-11-22T12:08:40;17.10;74.60
5164;DHT22;2601;50.224;10.126;2023-11-22T12:11:06;17.20;74.90
5164;DHT22;2601;50.224;10.126;2023-11-22T12:13:36;17.20;74.60
5164;DHT22;2601;50.224;10.126;2023-11-22T12:16:09;17.20;74.70
5164;DHT22;2601;50.224;10.126;2023-11-22T12:18:46;17.20;74.80
5164;DHT22;2601;50.224;10.126;2023-11-22T12:21:13;17.20;74.70
5164;DHT22;2601;50.224;10.126;2023-11-22T12:23:41;17.10;75.10
5164;DHT22;2601;50.224;10.126;2023-11-22T12:26:13;17.10;71.80
5164;DHT22;2601;50.224;10.126;2023-11-22T12:28:40;17.10;71.20
5164;DHT22;2601;50.224;10.126;2023-11-22T12:31:11;17.10;72.40
5164;DHT22;2601;50.224;10.126;2023-11-22T12:33:37;17.10;72.90
5164;DHT22;2601;50.224;10.126;2023-11-22T12:36:05;17.10;73.20
5164;DHT22;2601;50.224;10.126;2023-11-22T12:38:31;17.10;73.70
5164;DHT22;2601;50.224;10.126;2023-11-22T12:40:58;17.10;73.40
5164;DHT22;2601;50.224;10.126;2023-11-22T12:43:23;17.10;73.50
5164;DHT22;2601;50.224;10.126;2023-11-22T12:46:02;17.00;73.30
5164;DHT22;2601;50.224;10.126;2023-11-22T12:48:28;17.00;73.40
5164;DHT22;2601;50.224;10.126;2023-11-22T12:50:58;17.10;73.60
5164;DHT22;2601;50.224;10.126;2023-11-22T12:53:24;17.00;73.30
5164;DHT22;2601;50.224;10.126;2023-11-22T12:55:53;17.00;73.60
5164;DHT22;2601;50.224;10.126;2023-11-22T12:58:22;17.00;73.50
5164;DHT22;2601;50.224;10.126;2023-11-22T13:00:50;17.00;73.70
5164;DHT22;2601;50.224;10.126;2023-11-22T13:03:16;17.00;73.60
5164;DHT22;2601;50.224;10.126;2023-11-22T13:05:43;17.00;73.60
5164;DHT22;2601;50.224;10.126;2023-11-22T13:08:13;17.00;73.80
5164;DHT22;2601;50.224;10.126;2023-11-22T13:10:40;17.00;73.70
5164;DHT22;2601;50.224;10.126;2023-11-22T13:13:06;17.00;73.60
5164;DHT22;2601;50.224;10.126;2023-11-22T13:15:34;17.00;73.60
5164;DHT22;2601;50.224;10.126;2023-11-22T13:18:00;17.00;73.60
5164;DHT22;2601;50.224;10.126;2023-11-22T13:20:26;17.00;73.40
5164;DHT22;2601;50.224;10.126;2023-11-22T13:22:55;17.00;73.80
5164;DHT22;2601;50.224;10.126;2023-11-22T13:25:22;17.00;73.10
5164;DHT22;2601;50.224;10.126;2023-11-22T13:27:50;17.00;72.90
5164;DHT22;2601;50.224;10.126;2023-11-22T13:30:16;17.00;72.10
5164;DHT22;2601;50.224;10.126;2023-11-22T13:32:45;17.00;73.20
5164;DHT22;2601;50.224;10.126;2023-11-22T13:35:10;17.10;73.70
5164;DHT22;2601;50.224;10.126;2023-11-22T13:37:47;17.10;72.00
5164;DHT22;2601;50.224;10.126;2023-11-22T13:40:18;17.20;73.10
5164;DHT22;2601;50.224;10.126;2023-11-22T13:42:51;17.40;73.80
5164;DHT22;2601;50.224;10.126;2023-11-22T13:45:20;17.50;73.60
5164;DHT22;2601;50.224;10.126;2023-11-22T13:47:50;17.60;73.80
5164;DHT22;2601;50.224;10.126;2023-11-22T13:50:17;17.60;74.60
5164;DHT22;2601;50.224;10.126;2023-11-22T13:52:55;17.60;74.20
5164;DHT22;2601;50.224;10.126;2023-11-22T13:55:22;17.70;75.30
5164;DHT22;2601;50.224;10.126;2023-11-22T13:57:52;17.70;74.60
5164;DHT22;2601;50.224;10.126;2023-11-22T14:00:20;17.70;75.10
5164;DHT22;2601;50.224;10.126;2023-11-22T14:02:52;17.70;74.70
5164;DHT22;2601;50.224;10.126;2023-11-22T14:05:21;17.70;74.50
5164;DHT22;2601;50.224;10.126;2023-11-22T14:07:47;17.70;74.40
5164;DHT22;2601;50.224;10.126;2023-11-22T14:10:13;17.70;74.80
5164;DHT22;2601;50.224;10.126;2023-11-22T14:12:42;17.70;74.60
5164;DHT22;2601;50.224;10.126;2023-11-22T14:15:08;17.70;74.50
5164;DHT22;2601;50.224;10.126;2023-11-22T14:17:34;17.70;74.40
5164;DHT22;2601;50.224;10.126;2023-11-22T14:20:00;17.70;74.40
5164;DHT22;2601;50.224;10.126;2023-11-22T14:22:25;17.70;74.30
5164;DHT22;2601;50.224;10.126;2023-11-22T14:24:52;17.70;74.40
5164;DHT22;2601;50.224;10.126;2023-11-22T14:27:18;17.70;74.50
5164;DHT22;2601;50.224;10.126;2023-11-22T14:29:45;17.70;74.40
5164;DHT22;2601;50.224;10.126;2023-11-22T14:32:14;17.70;74.40
5164;DHT22;2601;50.224;10.126;2023-11-22T14:34:39;17.70;74.60
5164;DHT22;2601;50.224;10.126;2023-11-22T14:37:07;17.70;74.90
5164;DHT22;2601;50.224;10.126;2023-11-22T14:39:33;17.70;73.80
5164;DHT22;2601;50.224;10.126;2023-11-22T14:41:59;17.70;73.40
5164;DHT22;2601;50.224;10.126;2023-11-22T14:44:25;17.70;73.90
5164;DHT22;2601;50.224;10.126;2023-11-22T14:46:50;17.70;73.60
5164;DHT22;2601;50.224;10.126;2023-11-22T14:49:16;17.70;73.70
5164;DHT22;2601;50.224;10.126;2023-11-22T14:51:42;17.70;73.20
5164;DHT22;2601;50.224;10.126;2023-11-22T14:54:07;17.80;73.10
5164;DHT22;2601;50.224;10.126;2023-11-22T14:56:33;17.70;72.30
5164;DHT22;2601;50.224;10.126;2023-11-22T14:59:00;17.70;71.90
5164;DHT22;2601;50.224;10.126;2023-11-22T15:01:27;17.80;73.60
5164;DHT22;2601;50.224;10.126;2023-11-22T15:03:52;17.70;72.50
5164;DHT22;2601;50.224;10.126;2023-11-22T15:06:22;17.70;72.60
5164;DHT22;2601;50.224;10.126;2023-11-22T15:08:48;17.70;73.30
5164;DHT22;2601;50.224;10.126;2023-11-22T15:11:14;17.70;75.60
5164;DHT22;2601;50.224;10.126;2023-11-22T15:13:44;17.70;73.60
5164;DHT22;2601;50.224;10.126;2023-11-22T15:16:10;17.70;74.00
5164;DHT22;2601;50.224;10.126;2023-11-22T15:18:38;17.70;72.90
5164;DHT22;2601;50.224;10.126;2023-11-22T15:21:05;17.70;72.30
5164;DHT22;2601;50.224;10.126;2023-11-22T15:23:31;17.70;72.50
5164;DHT22;2601;50.224;10.126;2023-11-22T15:25:56;17.70;72.70
5164;DHT22;2601;50.224;10.126;2023-11-22T15:28:24;17.70;72.70
5164;DHT22;2601;50.224;10.126;2023-11-22T15:30:50;17.70;73.10
5164;DHT22;2601;50.224;10.126;2023-11-22T15:33:22;17.70;73.80
5164;DHT22;2601;50.224;10.126;2023-11-22T15:35:47;17.70;73.20
5164;DHT22;2601;50.224;10.126;2023-11-22T15:38:13;17.80;73.90
5164;DHT22;2601;50.224;10.126;2023-11-22T15:40:39;17.80;73.90
5164;DHT22;2601;50.224;10.126;2023-11-22T15:43:05;17.80;74.00
5164;DHT22;2601;50.224;10.126;2023-11-22T15:45:31;17.80;74.40